X  CloseMetar Aviation Weather Data     EBBR Brussels

Temperature

4°C Temperature

3°C Dewpoint

93% Humidity



Wind

 2 KM/H

 1 MPH

 0 M/S

 1 KTS



Calm
Due North
Current Conditions

Mostly Scattered Clouds Mostly Scattered Clouds
Pressure 1047.92 (hPa) - 30.94 (in)
Visibility 6.2 (mi) - 10 (km)
Airport
Airport-code EBBR

Location Brussels 14 (km)

Metar:
EBBR 201250Z VRB01KT 9999 SCT006 04/03 Q1048 NOSIG

Time: 20-01-2020 13:50